PAJN/JNU METAR and TAF weather

Enter ICAO airport designator
Station Type Date Time Source
PAJN METAR 2022/01/29 13:53 UTC NOAA

PAJN 291353Z 12020G27KT 7SM -RA FEW005 SCT031 OVC060 05/02 A2949 RMK AO2 PK WND 13028/1337 SLP986 P0002 T00500022 $


Station Type Date Time Source
PAJN Decoded METAR 2022/01/29 13:53 UTC NOAA

JUNEAU INTERNATIONAL AIRPORT, AK, United States (PAJN) 58-21N 134-34W 8M
Jan 29, 2022 - 08:53 AM EST / 2022.01.29 1353 UTC
Wind: from the ESE (120 degrees) at 23 MPH (20 KT) gusting to 31 MPH (27 KT):0
Visibility: 7 mile(s):0
Sky conditions: overcast
Weather: light rain
Precipitation last hour: 0.02 inches
Temperature: 41.0 F (5.0 C)
Dew Point: 36.0 F (2.2 C)
Relative Humidity: 82%
Pressure (altimeter): 29.49 in. Hg (998 hPa)
ob: PAJN 291353Z 12020G27KT 7SM -RA FEW005 SCT031 OVC060 05/02 A2949 RMK AO2 PK WND 13028/1337 SLP986 P0002 T00500022
cycle: 14

Station Type Date Time Source
PAJN TAF 2022/01/29 12:24 UTC NOAA

TAF PAJN 291121Z 2912/3012 10013KT 5SM -RA BR SCT005 BKN030 OVC040 WS020/16040KT
TEMPO 2914/2918 11014G24KT 4SM RA BR BKN015 OVC025
FM291800 12011KT 5SM -RA BR SCT008 OVC020
FM300300 11010KT P6SM -SHRASN SCT008 OVC035

Example: see airport list